sensor_id;sensor_type;location;lat;lon;timestamp;pressure;altitude;pressure_sealevel;temperature;humidity
70902;BME280;58548;47.210;8.618;2023-04-08T00:00:47;94317.31;;;14.39;35.87
70902;BME280;58548;47.210;8.618;2023-04-08T00:03:14;94307.25;;;14.23;35.84
70902;BME280;58548;47.210;8.618;2023-04-08T00:05:42;94299.00;;;14.06;35.65
70902;BME280;58548;47.210;8.618;2023-04-08T00:08:08;94295.00;;;13.83;35.59
70902;BME280;58548;47.210;8.618;2023-04-08T00:10:36;94228.63;;;13.35;35.78
70902;BME280;58548;47.210;8.618;2023-04-08T00:13:02;94319.84;;;13.80;35.48
70902;BME280;58548;47.210;8.618;2023-04-08T00:15:29;94311.59;;;13.63;35.97
70902;BME280;58548;47.210;8.618;2023-04-08T00:17:55;94233.84;;;12.95;36.27
70902;BME280;58548;47.210;8.618;2023-04-08T00:20:23;94320.66;;;13.47;36.32
70902;BME280;58548;47.210;8.618;2023-04-08T00:22:51;94212.66;;;12.70;35.88
70902;BME280;58548;47.210;8.618;2023-04-08T00:25:17;94205.19;;;12.60;35.83
70902;BME280;58548;47.210;8.618;2023-04-08T00:27:45;94222.75;;;12.66;36.61
70902;BME280;58548;47.210;8.618;2023-04-08T00:30:13;94277.22;;;12.91;36.42
70902;BME280;58548;47.210;8.618;2023-04-08T00:32:41;94283.06;;;12.93;36.13
70902;BME280;58548;47.210;8.618;2023-04-08T00:35:08;94294.97;;;12.89;36.16
70902;BME280;58548;47.210;8.618;2023-04-08T00:37:37;94310.69;;;12.89;35.89
70902;BME280;58548;47.210;8.618;2023-04-08T00:40:04;94305.81;;;12.79;36.33
70902;BME280;58548;47.210;8.618;2023-04-08T00:42:30;94309.81;;;12.68;36.27
70902;BME280;58548;47.210;8.618;2023-04-08T00:44:56;94248.59;;;12.20;36.58
70902;BME280;58548;47.210;8.618;2023-04-08T00:47:24;94220.16;;;12.04;36.54
70902;BME280;58548;47.210;8.618;2023-04-08T00:49:50;94289.59;;;12.48;37.03
70902;BME280;58548;47.210;8.618;2023-04-08T00:52:23;94192.19;;;11.76;36.53
70902;BME280;58548;47.210;8.618;2023-04-08T00:54:49;94182.88;;;11.67;36.39
70902;BME280;58548;47.210;8.618;2023-04-08T00:57:17;94248.84;;;11.97;36.92
70902;BME280;58548;47.210;8.618;2023-04-08T00:59:43;94306.03;;;12.29;36.60
70902;BME280;58548;47.210;8.618;2023-04-08T01:02:33;94309.06;;;12.26;37.18
70902;BME280;58548;47.210;8.618;2023-04-08T01:05:08;94311.63;;;12.19;36.28
70902;BME280;58548;47.210;8.618;2023-04-08T01:07:39;94317.44;;;12.14;37.04
70902;BME280;58548;47.210;8.618;2023-04-08T01:10:17;94302.91;;;12.05;36.77
70902;BME280;58548;47.210;8.618;2023-04-08T01:12:55;94289.69;;;11.91;37.08
70902;BME280;58548;47.210;8.618;2023-04-08T01:15:23;94204.81;;;11.30;36.80
70902;BME280;58548;47.210;8.618;2023-04-08T01:17:58;94316.75;;;11.99;37.15
70902;BME280;58548;47.210;8.618;2023-04-08T01:20:25;94214.47;;;11.30;36.84
70902;BME280;58548;47.210;8.618;2023-04-08T01:25:36;94307.28;;;11.69;36.76
70902;BME280;58548;47.210;8.618;2023-04-08T01:30:32;94312.69;;;11.68;37.12
70902;BME280;58548;47.210;8.618;2023-04-08T01:33:01;94213.84;;;10.99;37.22
70902;BME280;58548;47.210;8.618;2023-04-08T01:35:32;94307.63;;;11.59;37.42
70902;BME280;58548;47.210;8.618;2023-04-08T01:38:05;94286.53;;;11.39;37.16
70902;BME280;58548;47.210;8.618;2023-04-08T01:40:34;94203.63;;;10.83;37.87
70902;BME280;58548;47.210;8.618;2023-04-08T01:43:03;94185.00;;;10.64;37.28
70902;BME280;58548;47.210;8.618;2023-04-08T01:45:30;94298.94;;;11.30;37.24
70902;BME280;58548;47.210;8.618;2023-04-08T01:47:57;94312.88;;;11.38;38.05
70902;BME280;58548;47.210;8.618;2023-04-08T01:50:26;94194.28;;;10.67;37.81
70902;BME280;58548;47.210;8.618;2023-04-08T01:52:56;94300.31;;;11.26;37.77
70902;BME280;58548;47.210;8.618;2023-04-08T01:55:28;94184.94;;;10.58;37.63
70902;BME280;58548;47.210;8.618;2023-04-08T01:57:59;94297.31;;;11.29;37.28
70902;BME280;58548;47.210;8.618;2023-04-08T02:00:30;94273.81;;;11.08;37.52
70902;BME280;58548;47.210;8.618;2023-04-08T02:03:00;94253.78;;;10.93;37.77
70902;BME280;58548;47.210;8.618;2023-04-08T02:05:32;94301.28;;;11.25;37.27
70902;BME280;58548;47.210;8.618;2023-04-08T02:07:58;94203.06;;;10.59;37.56
70902;BME280;58548;47.210;8.618;2023-04-08T02:10:26;94305.53;;;11.26;37.82
70902;BME280;58548;47.210;8.618;2023-04-08T02:12:53;94312.75;;;11.24;37.79
70902;BME280;58548;47.210;8.618;2023-04-08T02:15:19;94305.69;;;11.18;37.40
70902;BME280;58548;47.210;8.618;2023-04-08T02:20:25;94320.09;;;11.14;37.26
70902;BME280;58548;47.210;8.618;2023-04-08T02:23:05;94319.69;;;11.10;37.72
70902;BME280;58548;47.210;8.618;2023-04-08T02:25:36;94288.13;;;10.90;38.07
70902;BME280;58548;47.210;8.618;2023-04-08T02:28:05;94307.53;;;11.02;37.43
70902;BME280;58548;47.210;8.618;2023-04-08T02:30:36;94319.59;;;11.04;37.42
70902;BME280;58548;47.210;8.618;2023-04-08T02:33:05;94311.13;;;11.01;37.43
70902;BME280;58548;47.210;8.618;2023-04-08T02:35:38;94315.75;;;10.99;37.59
70902;BME280;58548;47.210;8.618;2023-04-08T02:38:10;94323.78;;;10.98;37.69
70902;BME280;58548;47.210;8.618;2023-04-08T02:40:36;94321.53;;;10.95;37.50
70902;BME280;58548;47.210;8.618;2023-04-08T02:43:04;94169.63;;;9.96;38.18
70902;BME280;58548;47.210;8.618;2023-04-08T02:45:37;94237.31;;;10.34;37.44
70902;BME280;58548;47.210;8.618;2023-04-08T02:48:05;94306.91;;;10.79;37.96
70902;BME280;58548;47.210;8.618;2023-04-08T02:50:33;94217.50;;;10.25;38.26
70902;BME280;58548;47.210;8.618;2023-04-08T02:53:00;94192.63;;;10.07;37.99
70902;BME280;58548;47.210;8.618;2023-04-08T02:55:26;94209.41;;;10.20;38.26
70902;BME280;58548;47.210;8.618;2023-04-08T02:57:56;94203.28;;;10.06;37.82
70902;BME280;58548;47.210;8.618;2023-04-08T03:00:22;94324.22;;;10.80;37.29
70902;BME280;58548;47.210;8.618;2023-04-08T03:02:50;94314.50;;;10.74;37.77
70902;BME280;58548;47.210;8.618;2023-04-08T03:05:16;94314.50;;;10.74;37.58
70902;BME280;58548;47.210;8.618;2023-04-08T03:07:45;94315.06;;;10.69;37.44
70902;BME280;58548;47.210;8.618;2023-04-08T03:10:10;94314.94;;;10.62;37.51
70902;BME280;58548;47.210;8.618;2023-04-08T03:12:38;94315.16;;;10.61;37.88
70902;BME280;58548;47.210;8.618;2023-04-08T03:15:05;94310.84;;;10.53;37.49
70902;BME280;58548;47.210;8.618;2023-04-08T03:17:31;94277.81;;;10.30;37.70
70902;BME280;58548;47.210;8.618;2023-04-08T03:20:01;94316.44;;;10.50;38.29
70902;BME280;58548;47.210;8.618;2023-04-08T03:22:30;94227.91;;;9.88;38.26
70902;BME280;58548;47.210;8.618;2023-04-08T03:24:56;94304.19;;;10.35;37.82
70902;BME280;58548;47.210;8.618;2023-04-08T03:27:25;94333.53;;;10.52;37.69
70902;BME280;58548;47.210;8.618;2023-04-08T03:29:51;94326.31;;;10.54;37.70
70902;BME280;58548;47.210;8.618;2023-04-08T03:32:17;94322.66;;;10.49;37.57
70902;BME280;58548;47.210;8.618;2023-04-08T03:34:44;94234.47;;;9.99;37.72
70902;BME280;58548;47.210;8.618;2023-04-08T03:37:10;94297.06;;;10.29;38.05
70902;BME280;58548;47.210;8.618;2023-04-08T03:39:37;94212.91;;;9.75;38.05
70902;BME280;58548;47.210;8.618;2023-04-08T03:42:03;94273.31;;;10.24;38.26
70902;BME280;58548;47.210;8.618;2023-04-08T03:44:29;94318.06;;;10.51;38.23
70902;BME280;58548;47.210;8.618;2023-04-08T03:46:55;94326.78;;;10.58;37.80
70902;BME280;58548;47.210;8.618;2023-04-08T03:49:20;94250.31;;;10.13;37.91
70902;BME280;58548;47.210;8.618;2023-04-08T03:51:49;94324.41;;;10.63;38.63
70902;BME280;58548;47.210;8.618;2023-04-08T03:54:17;94327.28;;;10.68;38.02
70902;BME280;58548;47.210;8.618;2023-04-08T03:56:43;94207.75;;;9.97;38.59
70902;BME280;58548;47.210;8.618;2023-04-08T03:59:09;94202.44;;;10.05;38.74
70902;BME280;58548;47.210;8.618;2023-04-08T04:01:35;94303.16;;;10.66;38.71
70902;BME280;58548;47.210;8.618;2023-04-08T04:04:01;94221.47;;;10.21;38.15
70902;BME280;58548;47.210;8.618;2023-04-08T04:06:27;94225.97;;;10.27;38.55
70902;BME280;58548;47.210;8.618;2023-04-08T04:08:53;94333.59;;;10.96;38.56
70902;BME280;58548;47.210;8.618;2023-04-08T04:11:20;94316.75;;;10.98;38.25
70902;BME280;58548;47.210;8.618;2023-04-08T04:13:47;94221.28;;;10.37;38.60
70902;BME280;58548;47.210;8.618;2023-04-08T04:16:15;94320.84;;;11.08;38.69
70902;BME280;58548;47.210;8.618;2023-04-08T04:18:46;94300.09;;;10.99;38.30
70902;BME280;58548;47.210;8.618;2023-04-08T04:21:14;94331.97;;;11.16;38.64
70902;BME280;58548;47.210;8.618;2023-04-08T04:23:40;94326.03;;;11.23;38.23
70902;BME280;58548;47.210;8.618;2023-04-08T04:26:09;94221.75;;;10.63;38.66
70902;BME280;58548;47.210;8.618;2023-04-08T04:28:37;94326.28;;;11.28;38.42
70902;BME280;58548;47.210;8.618;2023-04-08T04:31:08;94334.38;;;11.33;38.97
70902;BME280;58548;47.210;8.618;2023-04-08T04:33:42;94240.63;;;10.80;38.89
70902;BME280;58548;47.210;8.618;2023-04-08T04:36:09;94245.06;;;10.86;38.56
70902;BME280;58548;47.210;8.618;2023-04-08T04:38:37;94353.44;;;11.55;38.54
70902;BME280;58548;47.210;8.618;2023-04-08T04:41:03;94311.69;;;11.40;38.33
70902;BME280;58548;47.210;8.618;2023-04-08T04:43:31;94232.63;;;10.88;38.67
70902;BME280;58548;47.210;8.618;2023-04-08T04:45:57;94247.28;;;11.11;38.76
70902;BME280;58548;47.210;8.618;2023-04-08T04:48:23;94228.22;;;11.10;38.50
70902;BME280;58548;47.210;8.618;2023-04-08T04:50:57;94349.13;;;11.98;37.74
70902;BME280;58548;47.210;8.618;2023-04-08T04:53:24;94336.25;;;11.96;38.30
70902;BME280;58548;47.210;8.618;2023-04-08T04:55:50;94230.59;;;11.34;38.19
70902;BME280;58548;47.210;8.618;2023-04-08T04:58:18;94351.09;;;12.17;37.99
70902;BME280;58548;47.210;8.618;2023-04-08T05:00:44;94249.22;;;11.52;38.02
70902;BME280;58548;47.210;8.618;2023-04-08T05:03:12;94347.50;;;12.25;38.28
70902;BME280;58548;47.210;8.618;2023-04-08T05:05:38;94259.59;;;11.74;37.65
70902;BME280;58548;47.210;8.618;2023-04-08T05:08:08;94352.25;;;12.43;37.44
70902;BME280;58548;47.210;8.618;2023-04-08T05:10:34;94250.63;;;11.83;37.62
70902;BME280;58548;47.210;8.618;2023-04-08T05:13:00;94361.38;;;12.61;37.31
70902;BME280;58548;47.210;8.618;2023-04-08T05:15:26;94265.25;;;12.06;37.48
70902;BME280;58548;47.210;8.618;2023-04-08T05:17:52;94368.28;;;12.75;37.29
70902;BME280;58548;47.210;8.618;2023-04-08T05:20:20;94242.88;;;12.03;37.15
70902;BME280;58548;47.210;8.618;2023-04-08T05:22:46;94365.91;;;12.80;36.81
70902;BME280;58548;47.210;8.618;2023-04-08T05:25:14;94354.78;;;12.78;37.19
70902;BME280;58548;47.210;8.618;2023-04-08T05:27:42;94271.41;;;12.27;37.14
70902;BME280;58548;47.210;8.618;2023-04-08T05:30:08;94203.09;;;11.86;36.92
70902;BME280;58548;47.210;8.618;2023-04-08T05:32:36;94282.94;;;12.46;37.50
70902;BME280;58548;47.210;8.618;2023-04-08T05:35:05;94377.28;;;13.08;36.32
70902;BME280;58548;47.210;8.618;2023-04-08T05:37:31;94346.56;;;12.95;36.89
70902;BME280;58548;47.210;8.618;2023-04-08T05:39:57;94374.66;;;13.15;36.52
70902;BME280;58548;47.210;8.618;2023-04-08T05:42:23;94377.50;;;13.20;36.54
70902;BME280;58548;47.210;8.618;2023-04-08T05:44:48;94380.13;;;13.20;36.80
70902;BME280;58548;47.210;8.618;2023-04-08T05:47:14;94353.88;;;13.06;37.43
70902;BME280;58548;47.210;8.618;2023-04-08T05:49:41;94303.59;;;12.69;37.14
70902;BME280;58548;47.210;8.618;2023-04-08T05:52:06;94325.22;;;12.98;37.25
70902;BME280;58548;47.210;8.618;2023-04-08T05:54:32;94303.59;;;12.82;37.11
70902;BME280;58548;47.210;8.618;2023-04-08T05:56:58;94336.94;;;13.09;36.91
70902;BME280;58548;47.210;8.618;2023-04-08T05:59:24;94385.63;;;13.45;36.73
70902;BME280;58548;47.210;8.618;2023-04-08T06:01:50;94409.69;;;13.49;37.18
70902;BME280;58548;47.210;8.618;2023-04-08T06:04:16;94370.88;;;13.37;37.04
70902;BME280;58548;47.210;8.618;2023-04-08T06:06:42;94398.78;;;13.59;36.91
70902;BME280;58548;47.210;8.618;2023-04-08T06:09:08;94394.56;;;13.57;36.89
70902;BME280;58548;47.210;8.618;2023-04-08T06:11:39;94303.84;;;13.01;36.89
70902;BME280;58548;47.210;8.618;2023-04-08T06:14:05;94286.09;;;12.96;36.77
70902;BME280;58548;47.210;8.618;2023-04-08T06:16:31;94390.31;;;13.56;36.98
70902;BME280;58548;47.210;8.618;2023-04-08T06:19:00;94412.13;;;13.77;36.68
70902;BME280;58548;47.210;8.618;2023-04-08T06:21:26;94379.19;;;13.61;36.92
70902;BME280;58548;47.210;8.618;2023-04-08T06:23:52;94307.50;;;13.13;37.39
70902;BME280;58548;47.210;8.618;2023-04-08T06:26:18;94414.56;;;13.92;37.04
70902;BME280;58548;47.210;8.618;2023-04-08T06:28:46;94390.72;;;13.87;37.35
70902;BME280;58548;47.210;8.618;2023-04-08T06:31:14;94415.16;;;14.08;37.35
70902;BME280;58548;47.210;8.618;2023-04-08T06:33:42;94416.97;;;14.14;36.81
70902;BME280;58548;47.210;8.618;2023-04-08T06:36:10;94410.09;;;14.20;37.28
70902;BME280;58548;47.210;8.618;2023-04-08T06:38:38;94404.44;;;14.23;37.39
70902;BME280;58548;47.210;8.618;2023-04-08T06:41:07;94412.69;;;14.33;37.58
70902;BME280;58548;47.210;8.618;2023-04-08T06:43:34;94410.50;;;14.37;36.97
70902;BME280;58548;47.210;8.618;2023-04-08T06:46:02;94410.06;;;14.46;36.93
70902;BME280;58548;47.210;8.618;2023-04-08T06:48:30;94306.50;;;13.88;37.06
70902;BME280;58548;47.210;8.618;2023-04-08T06:50:59;94418.50;;;14.62;36.93
70902;BME280;58548;47.210;8.618;2023-04-08T06:53:27;94386.59;;;14.45;36.67
70902;BME280;58548;47.210;8.618;2023-04-08T06:55:59;94335.75;;;14.19;36.99
70902;BME280;58548;47.210;8.618;2023-04-08T06:58:25;94325.84;;;14.21;36.68
70902;BME280;58548;47.210;8.618;2023-04-08T07:00:54;94314.53;;;14.21;36.47
70902;BME280;58548;47.210;8.618;2023-04-08T07:03:21;94395.47;;;14.71;36.77
70902;BME280;58548;47.210;8.618;2023-04-08T07:05:47;94420.88;;;14.90;36.83
70902;BME280;58548;47.210;8.618;2023-04-08T07:08:13;94416.81;;;14.95;36.48
70902;BME280;58548;47.210;8.618;2023-04-08T07:10:39;94415.59;;;15.04;36.37
70902;BME280;58548;47.210;8.618;2023-04-08T07:13:05;94418.38;;;15.09;36.21
70902;BME280;58548;47.210;8.618;2023-04-08T07:15:31;94423.81;;;15.14;36.42
70902;BME280;58548;47.210;8.618;2023-04-08T07:18:01;94323.53;;;14.58;36.30
70902;BME280;58548;47.210;8.618;2023-04-08T07:20:29;94385.03;;;15.03;36.51
70902;BME280;58548;47.210;8.618;2023-04-08T07:22:55;94421.97;;;15.21;36.39
70902;BME280;58548;47.210;8.618;2023-04-08T07:25:21;94345.91;;;14.81;36.66
70902;BME280;58548;47.210;8.618;2023-04-08T07:27:47;94428.78;;;15.36;36.81
70902;BME280;58548;47.210;8.618;2023-04-08T07:30:15;94417.84;;;15.39;36.92
70902;BME280;58548;47.210;8.618;2023-04-08T07:32:43;94433.13;;;15.56;36.79
70902;BME280;58548;47.210;8.618;2023-04-08T07:35:09;94425.81;;;15.58;37.00
70902;BME280;58548;47.210;8.618;2023-04-08T07:37:35;94415.25;;;15.64;36.67
70902;BME280;58548;47.210;8.618;2023-04-08T07:40:03;94440.19;;;15.94;35.82
70902;BME280;58548;47.210;8.618;2023-04-08T07:42:30;94350.94;;;15.53;36.08
70902;BME280;58548;47.210;8.618;2023-04-08T07:44:56;94350.03;;;15.66;36.26
70902;BME280;58548;47.210;8.618;2023-04-08T07:47:22;94360.25;;;15.81;35.61
70902;BME280;58548;47.210;8.618;2023-04-08T07:49:50;94429.72;;;16.38;35.44
70902;BME280;58548;47.210;8.618;2023-04-08T07:52:19;94381.69;;;16.10;35.65
70902;BME280;58548;47.210;8.618;2023-04-08T07:54:50;94402.53;;;16.37;35.48
70902;BME280;58548;47.210;8.618;2023-04-08T07:57:18;94427.88;;;16.57;35.35
70902;BME280;58548;47.210;8.618;2023-04-08T07:59:44;94450.59;;;16.77;34.77
70902;BME280;58548;47.210;8.618;2023-04-08T08:02:13;94425.34;;;16.69;35.07
70902;BME280;58548;47.210;8.618;2023-04-08T08:04:38;94459.16;;;16.97;34.81
70902;BME280;58548;47.210;8.618;2023-04-08T08:07:04;94337.38;;;16.26;34.49
70902;BME280;58548;47.210;8.618;2023-04-08T08:09:30;94406.81;;;16.76;34.68
70902;BME280;58548;47.210;8.618;2023-04-08T08:11:56;94460.97;;;17.15;35.06
70902;BME280;58548;47.210;8.618;2023-04-08T08:14:24;94445.81;;;17.11;35.13
70902;BME280;58548;47.210;8.618;2023-04-08T08:16:52;94456.50;;;17.16;34.63
70902;BME280;58548;47.210;8.618;2023-04-08T08:19:21;94471.84;;;17.26;35.01
70902;BME280;58548;47.210;8.618;2023-04-08T08:21:49;94462.06;;;17.26;34.29
70902;BME280;58548;47.210;8.618;2023-04-08T08:24:16;94371.13;;;16.73;34.57
70902;BME280;58548;47.210;8.618;2023-04-08T08:26:44;94386.78;;;16.86;34.22
70902;BME280;58548;47.210;8.618;2023-04-08T08:29:11;94467.19;;;17.40;34.48
70902;BME280;58548;47.210;8.618;2023-04-08T08:31:37;94454.13;;;17.45;34.60
70902;BME280;58548;47.210;8.618;2023-04-08T08:34:05;94355.16;;;16.86;34.88
70902;BME280;58548;47.210;8.618;2023-04-08T08:36:31;94465.66;;;17.62;35.02
70902;BME280;58548;47.210;8.618;2023-04-08T08:38:57;94456.72;;;17.63;34.25
70902;BME280;58548;47.210;8.618;2023-04-08T08:41:26;94461.84;;;17.77;34.14
70902;BME280;58548;47.210;8.618;2023-04-08T08:43:58;94411.66;;;17.46;34.58
70902;BME280;58548;47.210;8.618;2023-04-08T08:46:25;94470.66;;;18.01;33.49
70902;BME280;58548;47.210;8.618;2023-04-08T08:48:53;94365.25;;;17.39;33.56
70902;BME280;58548;47.210;8.618;2023-04-08T08:51:23;94374.63;;;17.65;33.74
70902;BME280;58548;47.210;8.618;2023-04-08T08:53:52;94461.03;;;18.31;33.08
70902;BME280;58548;47.210;8.618;2023-04-08T08:56:18;94388.38;;;17.98;33.12
70902;BME280;58548;47.210;8.618;2023-04-08T08:58:44;94473.00;;;18.69;33.33
70902;BME280;58548;47.210;8.618;2023-04-08T09:01:33;94391.84;;;18.46;32.27
70902;BME280;58548;47.210;8.618;2023-04-08T09:04:11;94464.00;;;19.18;32.32
70902;BME280;58548;47.210;8.618;2023-04-08T09:06:42;94479.94;;;19.47;31.96
70902;BME280;58548;47.210;8.618;2023-04-08T09:09:13;94478.47;;;19.68;31.07
70902;BME280;58548;47.210;8.618;2023-04-08T09:11:41;94401.44;;;19.40;31.26
70902;BME280;58548;47.210;8.618;2023-04-08T09:14:17;94390.53;;;19.54;30.45
70902;BME280;58548;47.210;8.618;2023-04-08T09:16:48;94375.13;;;19.51;30.93
70902;BME280;58548;47.210;8.618;2023-04-08T09:19:14;94391.81;;;19.80;31.00
70902;BME280;58548;47.210;8.618;2023-04-08T09:21:40;94485.03;;;20.57;30.44
70902;BME280;58548;47.210;8.618;2023-04-08T09:24:08;94408.53;;;20.32;30.11
70902;BME280;58548;47.210;8.618;2023-04-08T09:26:37;94473.41;;;20.98;29.33
70902;BME280;58548;47.210;8.618;2023-04-08T09:29:11;94470.13;;;21.07;28.93
70902;BME280;58548;47.210;8.618;2023-04-08T09:31:38;94399.63;;;20.77;28.37
70902;BME280;58548;47.210;8.618;2023-04-08T09:34:15;94477.88;;;21.36;27.32
70902;BME280;58548;47.210;8.618;2023-04-08T09:36:44;94456.44;;;21.43;27.39
70902;BME280;58548;47.210;8.618;2023-04-08T09:39:12;94481.34;;;21.81;27.33
70902;BME280;58548;47.210;8.618;2023-04-08T09:41:39;94394.84;;;21.46;26.68
70902;BME280;58548;47.210;8.618;2023-04-08T09:44:07;94474.81;;;21.94;25.82
70902;BME280;58548;47.210;8.618;2023-04-08T09:57:20;94473.78;;;22.28;26.30
70902;BME280;58548;47.210;8.618;2023-04-08T09:59:59;94480.47;;;22.63;25.80
70902;BME280;58548;47.210;8.618;2023-04-08T10:02:29;94489.84;;;22.71;25.33
70902;BME280;58548;47.210;8.618;2023-04-08T10:05:02;94478.94;;;22.72;25.44
70902;BME280;58548;47.210;8.618;2023-04-08T10:07:28;94396.03;;;22.16;24.93
70902;BME280;58548;47.210;8.618;2023-04-08T10:09:57;94416.78;;;22.19;25.16
70902;BME280;58548;47.210;8.618;2023-04-08T10:12:23;94474.69;;;22.77;25.23
70902;BME280;58548;47.210;8.618;2023-04-08T10:15:31;94488.38;;;22.91;25.33
70902;BME280;58548;47.210;8.618;2023-04-08T10:23:05;94420.53;;;23.03;25.08
70902;BME280;58548;47.210;8.618;2023-04-08T10:25:35;94483.75;;;23.92;24.63
70902;BME280;58548;47.210;8.618;2023-04-08T10:30:50;94476.72;;;25.47;24.12
70902;BME280;58548;47.210;8.618;2023-04-08T10:33:30;94463.13;;;25.93;21.78
70902;BME280;58548;47.210;8.618;2023-04-08T10:38:36;94473.34;;;26.60;21.48
70902;BME280;58548;47.210;8.618;2023-04-08T10:41:06;94477.38;;;26.92;20.39
70902;BME280;58548;47.210;8.618;2023-04-08T10:43:35;94464.13;;;27.01;19.87
70902;BME280;58548;47.210;8.618;2023-04-08T10:46:04;94470.63;;;27.44;20.57
70902;BME280;58548;47.210;8.618;2023-04-08T10:48:32;94401.81;;;26.90;19.71
70902;BME280;58548;47.210;8.618;2023-04-08T10:51:02;94472.97;;;26.72;18.96
70902;BME280;58548;47.210;8.618;2023-04-08T10:53:34;94478.59;;;26.71;20.00
70902;BME280;58548;47.210;8.618;2023-04-08T10:56:05;94397.75;;;26.69;19.62
70902;BME280;58548;47.210;8.618;2023-04-08T10:58:32;94449.31;;;27.58;19.79
70902;BME280;58548;47.210;8.618;2023-04-08T11:01:08;94473.84;;;28.08;18.31
70902;BME280;58548;47.210;8.618;2023-04-08T11:03:34;94470.69;;;28.58;18.20
70902;BME280;58548;47.210;8.618;2023-04-08T11:06:01;94474.91;;;29.12;18.53
70902;BME280;58548;47.210;8.618;2023-04-08T11:08:37;94445.22;;;29.45;17.83
70902;BME280;58548;47.210;8.618;2023-04-08T11:11:09;94469.41;;;30.01;16.38
70902;BME280;58548;47.210;8.618;2023-04-08T11:13:41;94437.81;;;30.15;19.30
70902;BME280;58548;47.210;8.618;2023-04-08T11:16:08;94453.69;;;30.62;16.59
70902;BME280;58548;47.210;8.618;2023-04-08T11:18:37;94449.53;;;30.79;15.97
70902;BME280;58548;47.210;8.618;2023-04-08T11:21:10;94457.56;;;30.70;16.63
70902;BME280;58548;47.210;8.618;2023-04-08T11:23:38;94475.72;;;30.42;15.89
70902;BME280;58548;47.210;8.618;2023-04-08T11:26:04;94330.59;;;28.65;15.00
70902;BME280;58548;47.210;8.618;2023-04-08T11:28:34;94454.88;;;28.90;16.43
70902;BME280;58548;47.210;8.618;2023-04-08T11:31:03;94382.06;;;28.06;16.23
70902;BME280;58548;47.210;8.618;2023-04-08T11:33:33;94377.03;;;27.47;16.21
70902;BME280;58548;47.210;8.618;2023-04-08T11:36:01;94408.00;;;27.59;17.81
70902;BME280;58548;47.210;8.618;2023-04-08T11:38:30;94387.72;;;27.52;18.08
70902;BME280;58548;47.210;8.618;2023-04-08T11:40:58;94457.78;;;28.27;18.28
70902;BME280;58548;47.210;8.618;2023-04-08T11:43:28;94458.47;;;28.33;18.59
70902;BME280;58548;47.210;8.618;2023-04-08T11:45:55;94379.84;;;28.13;18.84
70902;BME280;58548;47.210;8.618;2023-04-08T11:48:21;94461.34;;;29.03;18.69
70902;BME280;58548;47.210;8.618;2023-04-08T11:51:02;94461.28;;;29.22;17.71
70902;BME280;58548;47.210;8.618;2023-04-08T11:53:34;94444.31;;;29.22;17.31
70902;BME280;58548;47.210;8.618;2023-04-08T11:56:18;94445.13;;;28.94;17.61
70902;BME280;58548;47.210;8.618;2023-04-08T11:58:44;94453.78;;;28.58;17.62
70902;BME280;58548;47.210;8.618;2023-04-08T12:01:13;94453.69;;;28.30;18.35
70902;BME280;58548;47.210;8.618;2023-04-08T12:03:55;94377.78;;;27.53;16.76
70902;BME280;58548;47.210;8.618;2023-04-08T12:06:23;94452.50;;;27.60;17.64
70902;BME280;58548;47.210;8.618;2023-04-08T12:08:52;94378.81;;;26.60;17.65
70902;BME280;58548;47.210;8.618;2023-04-08T12:11:21;94433.06;;;26.71;17.17
70902;BME280;58548;47.210;8.618;2023-04-08T12:13:47;94463.50;;;26.56;17.95
70902;BME280;58548;47.210;8.618;2023-04-08T12:16:15;94450.94;;;26.16;18.56
70902;BME280;58548;47.210;8.618;2023-04-08T12:18:46;94440.97;;;25.82;18.58
70902;BME280;58548;47.210;8.618;2023-04-08T12:21:14;94358.22;;;25.01;18.72
70902;BME280;58548;47.210;8.618;2023-04-08T12:23:45;94359.59;;;24.93;18.75
70902;BME280;58548;47.210;8.618;2023-04-08T12:26:11;94343.91;;;24.61;18.56
70902;BME280;58548;47.210;8.618;2023-04-08T12:28:37;94358.03;;;24.87;19.07
70902;BME280;58548;47.210;8.618;2023-04-08T12:31:06;94447.06;;;25.48;19.69
70902;BME280;58548;47.210;8.618;2023-04-08T12:33:34;94448.41;;;25.35;19.85
70902;BME280;58548;47.210;8.618;2023-04-08T12:36:00;94454.00;;;25.39;19.65
70902;BME280;58548;47.210;8.618;2023-04-08T12:38:27;94447.63;;;25.29;19.88
70902;BME280;58548;47.210;8.618;2023-04-08T12:40:54;94464.69;;;25.39;20.68
70902;BME280;58548;47.210;8.618;2023-04-08T12:43:21;94298.63;;;24.35;19.98
70902;BME280;58548;47.210;8.618;2023-04-08T12:45:48;94442.59;;;25.18;20.36
70902;BME280;58548;47.210;8.618;2023-04-08T12:48:14;94447.13;;;25.17;19.94
70902;BME280;58548;47.210;8.618;2023-04-08T12:50:42;94446.91;;;25.08;20.28
70902;BME280;58548;47.210;8.618;2023-04-08T12:53:09;94363.69;;;24.49;20.35
70902;BME280;58548;47.210;8.618;2023-04-08T12:55:35;94356.47;;;24.60;21.13
70902;BME280;58548;47.210;8.618;2023-04-08T12:58:03;94409.41;;;25.24;20.88
70902;BME280;58548;47.210;8.618;2023-04-08T13:00:33;94357.56;;;25.25;19.69
70902;BME280;58548;47.210;8.618;2023-04-08T13:03:04;94374.56;;;25.50;20.32
70902;BME280;58548;47.210;8.618;2023-04-08T13:05:35;94451.22;;;26.15;19.48
70902;BME280;58548;47.210;8.618;2023-04-08T13:08:01;94450.25;;;25.95;19.21
70902;BME280;58548;47.210;8.618;2023-04-08T13:10:27;94360.22;;;25.30;19.58
70902;BME280;58548;47.210;8.618;2023-04-08T13:12:53;94446.53;;;25.91;19.83
70902;BME280;58548;47.210;8.618;2023-04-08T13:15:21;94377.78;;;25.52;20.08
70902;BME280;58548;47.210;8.618;2023-04-08T13:17:50;94439.13;;;25.83;20.13
70902;BME280;58548;47.210;8.618;2023-04-08T13:20:15;94441.84;;;25.67;18.93
70902;BME280;58548;47.210;8.618;2023-04-08T13:22:42;94354.97;;;25.09;19.69
70902;BME280;58548;47.210;8.618;2023-04-08T13:25:08;94355.81;;;24.99;19.55
70902;BME280;58548;47.210;8.618;2023-04-08T13:27:38;94434.50;;;25.43;20.06
70902;BME280;58548;47.210;8.618;2023-04-08T13:30:08;94441.19;;;25.46;20.49
70902;BME280;58548;47.210;8.618;2023-04-08T13:32:36;94368.34;;;25.09;20.80
70902;BME280;58548;47.210;8.618;2023-04-08T13:35:02;94365.22;;;24.92;20.62